Time;durP1;ratioP1;P1;durP2;ratioP2;P2;SDS_P1;SDS_P2;PMS_P1;PMS_P2;Temp;Humidity;BMP_temperature;BMP_pressure;BME280_temperature;BME280_humidity;BME280_pressure;Samples;Min_cycle;Max_cycle;Signal;HPM_P1;HPM_P2
2021/12/14 00:00:33;;;;;;;351.60;255.70;;;;;;;24.25;39.27;102519.75;5062279;28;20033;-42
2021/12/14 00:03:01;;;;;;;355.70;257.30;;;;;;;24.29;39.36;102513.78;5063612;28;20350;-41
2021/12/14 00:05:31;;;;;;;361.13;264.38;;;;;;;24.24;39.56;102505.72;5063668;28;20057;-41
2021/12/14 00:08:05;;;;;;;358.95;262.83;;;;;;;24.28;39.23;102507.63;5063630;28;20531;-42
2021/12/14 00:13:17;;;;;;;357.08;255.55;;;;;;;24.35;39.32;102514.00;5063901;28;20033;-42
2021/12/14 00:15:46;;;;;;;372.17;269.67;;;;;;;24.35;39.34;102518.38;5063586;28;20028;-42
2021/12/14 00:18:16;;;;;;;352.77;257.63;;;;;;;24.31;39.21;102512.13;5063666;28;20029;-41
2021/12/14 00:20:49;;;;;;;370.25;269.45;;;;;;;24.38;39.24;102513.22;5061407;28;20035;-41
2021/12/14 00:25:53;;;;;;;367.52;266.75;;;;;;;24.29;39.46;102516.41;5063598;28;20422;-41
2021/12/14 00:28:34;;;;;;;372.38;276.98;;;;;;;24.39;39.58;102502.78;5063435;28;20474;-42
2021/12/14 00:31:08;;;;;;;369.08;271.70;;;;;;;24.30;39.44;102493.69;5061981;28;20539;-46
2021/12/14 00:33:39;;;;;;;371.00;266.08;;;;;;;24.29;39.26;102495.44;5063389;28;20478;-42
2021/12/14 00:36:10;;;;;;;376.30;273.58;;;;;;;24.20;39.79;102488.13;5063302;28;20043;-42
2021/12/14 00:38:39;;;;;;;359.92;267.15;;;;;;;24.27;39.55;102484.00;5063117;28;20043;-41
2021/12/14 00:41:11;;;;;;;372.48;268.90;;;;;;;24.29;39.32;102482.31;5063212;28;20028;-41
2021/12/14 00:43:40;;;;;;;366.85;265.65;;;;;;;24.20;39.72;102480.25;5062595;28;20044;-41
2021/12/14 00:46:09;;;;;;;372.90;271.40;;;;;;;24.21;39.61;102474.19;5063372;28;20036;-41
2021/12/14 00:48:40;;;;;;;366.75;266.80;;;;;;;24.22;39.89;102469.81;5063325;28;20371;-41
2021/12/14 00:51:09;;;;;;;382.60;280.23;;;;;;;24.28;39.47;102464.81;5062883;28;20032;-41
2021/12/14 00:53:38;;;;;;;379.17;275.98;;;;;;;24.23;39.62;102455.88;5063470;28;20060;-41
2021/12/14 00:56:10;;;;;;;366.80;270.92;;;;;;;24.26;39.67;102454.25;5063644;28;20028;-42
2021/12/14 00:58:38;;;;;;;385.27;280.65;;;;;;;24.19;39.68;102449.63;5062748;28;20541;-42
2021/12/14 01:01:21;;;;;;;385.23;277.98;;;;;;;24.23;39.88;102453.25;5062927;28;20032;-42
2021/12/14 01:03:54;;;;;;;385.33;281.23;;;;;;;24.31;39.59;102454.44;5062569;28;20115;-42
2021/12/14 01:06:26;;;;;;;386.35;276.92;;;;;;;24.25;39.49;102451.56;5063088;28;20410;-41
2021/12/14 01:08:55;;;;;;;380.83;276.17;;;;;;;24.28;39.78;102452.56;5061479;28;20569;-42
2021/12/14 01:11:30;;;;;;;380.17;280.80;;;;;;;24.22;39.57;102455.00;5063175;28;20033;-42
2021/12/14 01:14:05;;;;;;;386.08;282.73;;;;;;;24.20;39.82;102455.75;5063196;28;20036;-42
2021/12/14 01:16:50;;;;;;;398.60;288.52;;;;;;;24.26;39.72;102458.59;5063420;28;20420;-42
2021/12/14 01:19:26;;;;;;;379.58;283.88;;;;;;;24.20;39.98;102451.41;5062798;28;20552;-41
2021/12/14 01:22:16;;;;;;;388.30;285.10;;;;;;;24.19;39.61;102446.09;5062967;28;20059;-41
2021/12/14 01:27:24;;;;;;;375.85;274.02;;;;;;;24.24;39.53;102450.66;5063324;28;20108;-42
2021/12/14 01:29:55;;;;;;;385.70;284.85;;;;;;;24.10;39.52;102418.72;5062939;28;20405;-41
2021/12/14 01:32:28;;;;;;;392.20;287.65;;;;;;;24.30;39.41;102451.72;5061453;28;20028;-41
2021/12/14 01:34:57;;;;;;;385.67;286.83;;;;;;;24.26;40.00;102454.25;5062889;28;20072;-41
2021/12/14 01:37:38;;;;;;;395.23;289.30;;;;;;;24.26;39.86;102448.13;5062863;28;20028;-41
2021/12/14 01:40:17;;;;;;;390.52;284.67;;;;;;;24.28;39.76;102452.56;5061712;28;20381;-41
2021/12/14 01:42:47;;;;;;;383.95;279.77;;;;;;;24.23;39.89;102453.25;5064022;28;20034;-41
2021/12/14 01:45:20;;;;;;;383.75;285.55;;;;;;;24.19;39.87;102452.25;5065876;28;20401;-42
2021/12/14 01:47:53;;;;;;;391.58;288.60;;;;;;;24.26;39.72;102455.97;5066079;28;20032;-42
2021/12/14 01:50:29;;;;;;;392.75;286.23;;;;;;;24.17;40.01;102453.00;5066151;28;20036;-41
2021/12/14 01:52:58;;;;;;;382.35;282.58;;;;;;;24.22;39.76;102452.38;5066193;28;20029;-41
2021/12/14 01:55:33;;;;;;;390.20;286.70;;;;;;;24.17;39.80;102463.50;5066404;28;20375;-41
2021/12/14 01:58:07;;;;;;;386.23;284.17;;;;;;;24.23;40.12;102462.03;5065973;28;20036;-41
2021/12/14 02:00:42;;;;;;;386.45;289.02;;;;;;;24.26;39.55;102456.84;5065870;28;20398;-41
2021/12/14 02:03:13;;;;;;;384.55;287.48;;;;;;;24.17;40.08;102466.13;5066106;28;20036;-41
2021/12/14 02:05:47;;;;;;;379.30;285.40;;;;;;;24.16;40.13;102470.50;5066032;28;20507;-42
2021/12/14 02:08:19;;;;;;;388.38;289.75;;;;;;;24.17;39.84;102479.22;5066273;28;20046;-42
2021/12/14 02:10:47;;;;;;;406.52;296.60;;;;;;;24.26;39.91;102488.34;5066202;28;20043;-41
2021/12/14 02:13:24;;;;;;;397.20;293.77;;;;;;;24.22;39.84;102493.41;5065753;28;20025;-41
2021/12/14 02:15:53;;;;;;;393.90;293.35;;;;;;;24.17;40.39;102487.09;5066119;28;20025;-41
2021/12/14 02:18:23;;;;;;;404.65;298.98;;;;;;;24.16;40.08;102487.97;5065822;28;20051;-42
2021/12/14 02:21:03;;;;;;;392.20;293.83;;;;;;;24.19;40.36;102498.53;5065843;28;20470;-42
2021/12/14 02:23:33;;;;;;;390.88;289.92;;;;;;;24.20;40.46;102495.09;5065763;28;20043;-42
2021/12/14 02:26:04;;;;;;;410.92;298.75;;;;;;;24.24;40.00;102499.63;5065685;28;20036;-42
2021/12/14 02:28:33;;;;;;;393.95;289.85;;;;;;;24.19;40.00;102509.03;5065970;28;20089;-42
2021/12/14 02:31:03;;;;;;;388.77;292.80;;;;;;;24.16;40.40;102509.81;5065546;28;20430;-41
2021/12/14 02:33:37;;;;;;;393.70;289.38;;;;;;;24.23;39.81;102521.44;5065402;28;20036;-41
2021/12/14 02:36:08;;;;;;;394.30;295.10;;;;;;;24.11;40.27;102530.63;5065856;28;20032;-41
2021/12/14 02:38:43;;;;;;;400.58;298.02;;;;;;;24.10;40.19;102522.69;5065486;28;20024;-41
2021/12/14 02:41:12;;;;;;;397.88;296.33;;;;;;;24.11;40.24;102522.78;5065345;28;20040;-41
2021/12/14 02:43:43;;;;;;;396.98;295.48;;;;;;;24.26;40.27;102524.16;5064825;28;20021;-41
2021/12/14 02:46:32;;;;;;;395.83;294.05;;;;;;;24.35;39.74;102536.72;5064873;28;20040;-42
2021/12/14 02:49:04;;;;;;;389.50;297.02;;;;;;;24.29;39.94;102529.53;5064919;28;20447;-42
2021/12/14 02:51:34;;;;;;;397.02;294.05;;;;;;;24.16;40.08;102533.41;5065431;28;20036;-43
2021/12/14 02:54:08;;;;;;;396.38;296.38;;;;;;;24.17;40.20;102540.44;5064371;28;20046;-42
2021/12/14 02:56:37;;;;;;;384.30;294.58;;;;;;;24.27;40.14;102541.69;5065341;28;20032;-42
2021/12/14 02:59:18;;;;;;;398.60;292.85;;;;;;;24.28;39.76;102540.84;5064737;28;20111;-41
2021/12/14 03:01:49;;;;;;;406.08;294.60;;;;;;;24.20;39.94;102542.28;5064927;28;20086;-42
2021/12/14 03:04:17;;;;;;;396.20;295.85;;;;;;;24.17;40.43;102539.53;5065060;28;20040;-43
2021/12/14 03:06:50;;;;;;;400.60;300.10;;;;;;;24.21;40.14;102526.63;5063275;28;20541;-43
2021/12/14 03:12:11;;;;;;;397.85;301.38;;;;;;;24.17;40.21;102540.44;5064234;28;20020;-41
2021/12/14 03:14:41;;;;;;;394.20;292.95;;;;;;;24.16;40.45;102537.78;5065224;28;20111;-43
2021/12/14 03:17:10;;;;;;;396.23;299.73;;;;;;;24.13;40.11;102538.53;5064896;28;20125;-42
2021/12/14 03:19:38;;;;;;;398.48;299.02;;;;;;;24.05;40.43;102509.41;5064913;28;20051;-44
2021/12/14 03:22:25;;;;;;;401.15;297.70;;;;;;;24.28;39.80;102541.72;5064282;28;20397;-41
2021/12/14 03:24:55;;;;;;;400.30;298.55;;;;;;;24.22;40.13;102548.47;5064156;28;20090;-42
2021/12/14 03:27:24;;;;;;;410.08;304.80;;;;;;;24.20;40.38;102548.44;5064327;28;20028;-42
2021/12/14 03:29:52;;;;;;;401.42;301.48;;;;;;;24.09;40.44;102534.94;5064267;28;20082;-42
2021/12/14 03:32:20;;;;;;;401.98;294.20;;;;;;;24.17;40.07;102534.28;5064190;28;20485;-42
2021/12/14 03:34:48;;;;;;;401.05;299.90;;;;;;;24.02;40.63;102535.50;5064269;28;20107;-43
2021/12/14 03:37:22;;;;;;;403.02;296.10;;;;;;;24.14;40.28;102536.84;5064598;28;20034;-42
2021/12/14 03:39:55;;;;;;;400.50;304.20;;;;;;;24.09;40.15;102527.06;5064069;28;20043;-42
2021/12/14 03:42:35;;;;;;;401.45;301.98;;;;;;;24.11;40.46;102521.84;5062595;28;20119;-42
2021/12/14 03:45:07;;;;;;;402.25;300.73;;;;;;;24.24;39.93;102524.09;5064129;28;20033;-42
2021/12/14 03:47:45;;;;;;;405.08;303.85;;;;;;;24.21;40.09;102530.97;5064260;28;20024;-42
2021/12/14 03:50:22;;;;;;;408.95;306.80;;;;;;;24.14;40.18;102534.22;5064023;28;20029;-43
2021/12/14 03:52:52;;;;;;;408.40;307.23;;;;;;;24.10;40.31;102538.44;5064379;28;20219;-42
2021/12/14 03:55:24;;;;;;;403.85;304.83;;;;;;;24.16;40.55;102537.78;5064293;28;20028;-42
2021/12/14 03:57:53;;;;;;;401.63;301.33;;;;;;;24.14;40.33;102531.59;5062193;28;20039;-42
2021/12/14 04:00:32;;;;;;;402.10;304.17;;;;;;;24.12;40.16;102532.44;5062155;28;20024;-42
2021/12/14 04:03:05;;;;;;;415.98;309.40;;;;;;;24.31;40.01;102529.56;5063645;28;20028;-42
2021/12/14 04:05:35;;;;;;;401.60;299.58;;;;;;;24.22;39.89;102522.25;5063230;28;20040;-42
2021/12/14 04:08:04;;;;;;;410.35;304.40;;;;;;;24.18;40.31;102533.47;5062500;28;20024;-42
2021/12/14 04:10:36;;;;;;;407.48;300.45;;;;;;;24.15;40.15;102531.63;5062393;28;20082;-42
2021/12/14 04:13:05;;;;;;;417.75;310.58;;;;;;;24.15;40.21;102521.16;5062864;28;20111;-41
2021/12/14 04:15:35;;;;;;;406.27;303.67;;;;;;;24.17;40.39;102526.44;5062739;28;20466;-42
2021/12/14 04:18:03;;;;;;;405.52;303.02;;;;;;;24.21;40.31;102530.97;5063132;28;20039;-42
2021/12/14 04:20:40;;;;;;;401.67;301.35;;;;;;;24.19;40.11;102528.28;5063413;28;20474;-42
2021/12/14 04:23:12;;;;;;;407.80;301.60;;;;;;;24.19;40.15;102527.38;5063442;28;20611;-42
2021/12/14 04:25:41;;;;;;;405.77;309.33;;;;;;;24.11;40.28;102535.88;5063279;28;20040;-41
2021/12/14 04:28:13;;;;;;;408.48;310.15;;;;;;;24.14;40.43;102534.22;5063508;28;20044;-41
2021/12/14 04:30:40;;;;;;;406.48;309.45;;;;;;;24.24;40.39;102539.81;5063559;28;20279;-42
2021/12/14 04:33:26;;;;;;;409.27;306.48;;;;;;;24.14;40.49;102536.84;5063565;28;20028;-42
2021/12/14 04:35:55;;;;;;;398.98;300.08;;;;;;;24.18;40.00;102537.00;5063590;28;20380;-41
2021/12/14 04:38:29;;;;;;;405.13;298.92;;;;;;;24.12;40.07;102535.03;5063097;28;20028;-41
2021/12/14 04:52:18;;;;;;;405.33;304.65;;;;;;;24.08;40.51;102542.72;5059821;28;20370;-42
2021/12/14 04:54:50;;;;;;;408.25;304.80;;;;;;;24.08;40.20;102551.50;5062819;28;20021;-41
2021/12/14 04:57:32;;;;;;;412.35;310.48;;;;;;;24.12;40.54;102549.88;5063305;28;20025;-42
2021/12/14 05:00:21;;;;;;;403.60;303.67;;;;;;;24.10;40.14;102541.97;5062124;28;20024;-41
2021/12/14 05:02:50;;;;;;;399.30;300.17;;;;;;;24.16;40.11;102533.41;5062753;28;20129;-41
2021/12/14 05:05:23;;;;;;;408.33;306.38;;;;;;;24.09;40.32;102536.63;5062560;28;20044;-41
2021/12/14 05:10:45;;;;;;;405.45;303.08;;;;;;;23.98;40.87;102536.25;5054363;28;20054;-42
2021/12/14 05:13:17;;;;;;;409.67;304.52;;;;;;;24.07;40.68;102539.22;5062484;28;20130;-42
2021/12/14 05:15:45;;;;;;;407.58;310.30;;;;;;;24.03;40.62;102537.31;5063139;28;20127;-42
2021/12/14 05:18:15;;;;;;;410.52;308.38;;;;;;;24.02;40.69;102546.00;5066350;28;20064;-41
2021/12/14 05:20:46;;;;;;;408.40;303.20;;;;;;;24.15;40.66;102549.09;5067171;28;20385;-41
2021/12/14 05:23:22;;;;;;;407.90;304.75;;;;;;;24.13;40.44;102546.41;5067103;28;20200;-41
2021/12/14 05:25:52;;;;;;;414.83;315.75;;;;;;;24.06;40.50;102542.66;5067012;28;20040;-42
2021/12/14 05:28:21;;;;;;;402.48;311.00;;;;;;;24.08;40.43;102538.38;5066828;28;20497;-42
2021/12/14 05:30:53;;;;;;;410.52;309.40;;;;;;;24.02;40.81;102543.38;5066719;28;20032;-45
2021/12/14 05:33:27;;;;;;;407.67;306.45;;;;;;;24.03;40.63;102541.66;5066371;28;20044;-42
2021/12/14 05:35:59;;;;;;;419.15;310.38;;;;;;;24.08;40.42;102537.47;5066976;28;20089;-42
2021/12/14 05:44:11;;;;;;;414.38;308.33;;;;;;;24.11;40.77;102545.47;5054183;28;20481;-42
2021/12/14 05:46:40;;;;;;;416.85;312.15;;;;;;;24.03;40.93;102552.16;5066059;28;20048;-42
2021/12/14 05:49:11;;;;;;;413.88;311.13;;;;;;;24.02;40.93;102561.72;5039020;28;20024;-43
2021/12/14 05:51:40;;;;;;;411.27;308.38;;;;;;;24.00;41.07;102565.13;5066347;28;20025;-42
2021/12/14 05:54:09;;;;;;;423.90;316.15;;;;;;;24.06;40.50;102566.25;5066368;28;20485;-41
2021/12/14 05:56:38;;;;;;;413.08;311.95;;;;;;;24.04;40.68;102565.31;5066348;28;20033;-41
2021/12/14 05:59:07;;;;;;;415.85;316.13;;;;;;;24.10;40.83;102570.78;5048352;28;20024;-41
2021/12/14 06:01:34;;;;;;;409.52;309.70;;;;;;;24.07;40.80;102569.78;5064714;28;20025;-42
2021/12/14 06:04:10;;;;;;;424.73;317.92;;;;;;;24.14;40.53;102574.41;5066166;28;20024;-42
2021/12/14 06:06:41;;;;;;;416.35;310.98;;;;;;;24.15;40.74;102573.59;5065818;28;20470;-41
2021/12/14 06:09:24;;;;;;;408.48;308.48;;;;;;;24.15;40.54;102572.72;5065834;28;20029;-41
2021/12/14 06:11:57;;;;;;;423.08;313.10;;;;;;;23.90;40.53;102542.88;5066198;28;20025;-42
2021/12/14 06:14:27;;;;;;;405.75;306.95;;;;;;;24.05;40.84;102574.09;5065962;28;20470;-41
2021/12/14 06:16:58;;;;;;;410.05;310.27;;;;;;;24.11;40.70;102590.03;5065909;28;20049;-41
2021/12/14 06:19:31;;;;;;;412.23;308.45;;;;;;;24.05;40.86;102588.06;5066132;28;20035;-44
2021/12/14 06:22:04;;;;;;;417.27;309.15;;;;;;;24.08;40.48;102592.53;5065982;28;20032;-42
2021/12/14 06:24:37;;;;;;;418.23;311.10;;;;;;;24.06;40.86;102587.25;5065992;28;20060;-42
2021/12/14 06:27:10;;;;;;;414.05;315.70;;;;;;;24.04;40.74;102596.78;5064201;28;20833;-42
2021/12/14 06:29:42;;;;;;;410.88;307.08;;;;;;;24.03;40.96;102599.34;5065221;28;20032;-42
2021/12/14 06:32:31;;;;;;;411.05;308.67;;;;;;;24.06;40.54;102600.34;5065970;28;20027;-42
2021/12/14 06:35:06;;;;;;;416.33;314.63;;;;;;;24.15;40.33;102599.81;5065861;28;20093;-42
2021/12/14 06:40:58;;;;;;;421.08;316.85;;;;;;;24.10;40.68;102599.63;5051218;28;20029;-41
2021/12/14 06:43:41;;;;;;;418.60;314.70;;;;;;;24.10;40.56;102602.25;5059984;28;20102;-42
2021/12/14 06:46:13;;;;;;;417.48;318.05;;;;;;;24.09;40.98;102602.19;5064554;28;20433;-41
2021/12/14 06:48:43;;;;;;;416.50;319.15;;;;;;;24.04;41.00;102599.38;5065492;28;20033;-41
2021/12/14 06:51:16;;;;;;;410.13;313.48;;;;;;;24.02;41.14;102597.56;5064742;28;20457;-41
2021/12/14 06:53:48;;;;;;;416.98;316.15;;;;;;;24.11;40.68;102604.06;5065514;28;20033;-41
2021/12/14 06:56:18;;;;;;;415.73;311.98;;;;;;;24.07;40.77;102607.38;5065128;28;20044;-42
2021/12/14 06:58:50;;;;;;;406.38;309.75;;;;;;;23.99;40.96;102607.91;5047264;28;20039;-41
2021/12/14 07:01:24;;;;;;;413.15;310.52;;;;;;;24.04;41.08;102612.50;5064751;28;20497;-42
2021/12/14 07:03:58;;;;;;;417.80;315.70;;;;;;;24.01;40.70;102611.50;5063516;28;20036;-42
2021/12/14 07:06:33;;;;;;;408.58;308.00;;;;;;;24.03;40.71;102608.09;5064680;28;20122;-42
2021/12/14 07:09:08;;;;;;;410.95;312.38;;;;;;;24.05;41.04;102618.66;5064916;28;20373;-43
2021/12/14 07:11:37;;;;;;;414.48;310.30;;;;;;;24.01;40.76;102622.84;5064432;28;20468;-44
2021/12/14 07:14:16;;;;;;;403.88;297.77;;;;;;;24.04;40.63;102616.88;5065240;28;20032;-45
2021/12/14 07:16:47;;;;;;;394.08;289.40;;;;;;;23.90;41.16;102625.06;5065058;28;20060;-43
2021/12/14 07:19:15;;;;;;;398.05;289.25;;;;;;;24.02;40.51;102629.00;5064879;28;20032;-42
2021/12/14 07:21:47;;;;;;;373.88;281.60;;;;;;;24.04;40.52;102638.72;5064552;28;20089;-43
2021/12/14 07:24:25;;;;;;;388.83;280.45;;;;;;;24.03;40.58;102644.78;5063183;28;20394;-49
2021/12/14 07:27:16;;;;;;;388.55;278.02;;;;;;;24.07;40.52;102635.34;5064779;28;20056;-46
2021/12/14 07:29:44;;;;;;;384.38;274.30;;;;;;;24.08;40.29;102643.25;5064962;28;20125;-43
2021/12/14 07:32:13;;;;;;;377.30;279.25;;;;;;;24.09;40.56;102639.78;5064394;28;20028;-43
2021/12/14 07:34:41;;;;;;;376.40;273.02;;;;;;;24.16;40.33;102646.16;5064258;28;20131;-44
2021/12/14 07:37:10;;;;;;;369.88;268.80;;;;;;;24.04;40.28;102650.94;5064358;28;20028;-45
2021/12/14 07:39:38;;;;;;;375.05;273.42;;;;;;;24.10;40.35;102646.84;5063171;28;21024;-42
2021/12/14 07:42:07;;;;;;;373.75;269.83;;;;;;;24.01;40.40;102649.06;5064321;28;20036;-45
2021/12/14 07:44:38;;;;;;;363.55;268.90;;;;;;;23.97;40.86;102655.06;5064057;28;20039;-42
2021/12/14 07:47:14;;;;;;;367.52;264.20;;;;;;;24.07;40.77;102653.69;5064107;28;20024;-44
2021/12/14 07:49:47;;;;;;;368.95;266.63;;;;;;;24.09;40.31;102654.63;5062718;28;20037;-43
2021/12/14 07:52:18;;;;;;;371.33;263.60;;;;;;;24.04;40.53;102649.19;5064356;28;20032;-43
2021/12/14 07:54:51;;;;;;;371.10;261.20;;;;;;;24.03;40.69;102651.78;5063996;28;20036;-42
2021/12/14 07:57:27;;;;;;;364.25;263.92;;;;;;;24.05;41.02;102653.63;5064322;28;20036;-42
2021/12/14 07:59:56;;;;;;;369.65;263.23;;;;;;;24.05;40.91;102653.63;5064345;28;20173;-42
2021/12/14 08:02:45;;;;;;;366.73;255.80;;;;;;;24.05;40.51;102651.00;5063497;28;20040;-42
2021/12/14 08:05:20;;;;;;;358.27;256.33;;;;;;;24.05;40.83;102661.47;5063654;28;20483;-43
2021/12/14 08:07:51;;;;;;;358.10;258.33;;;;;;;24.16;40.86;102663.66;5063884;28;20037;-42
2021/12/14 08:10:25;;;;;;;357.95;258.17;;;;;;;24.10;40.78;102670.44;5063979;28;20056;-42
2021/12/14 08:12:57;;;;;;;352.65;253.55;;;;;;;24.22;40.34;102669.09;5063454;28;20036;-41
2021/12/14 08:15:40;;;;;;;351.65;254.57;;;;;;;24.10;40.55;102667.81;5063951;28;20383;-42
2021/12/14 08:18:22;;;;;;;357.35;258.15;;;;;;;24.09;40.69;102683.47;5064062;28;20039;-42
2021/12/14 08:21:15;;;;;;;367.45;258.27;;;;;;;24.03;41.03;102681.50;5061813;28;20051;-41
2021/12/14 08:23:54;;;;;;;359.70;257.88;;;;;;;24.17;40.87;102694.25;5060866;28;20041;-41
2021/12/14 08:26:32;;;;;;;370.75;260.13;;;;;;;24.31;40.65;102700.03;5063854;28;20046;-41
2021/12/14 08:29:05;;;;;;;355.60;257.77;;;;;;;24.13;40.96;102701.09;5061961;28;20028;-41
2021/12/14 08:31:39;;;;;;;361.20;257.13;;;;;;;24.23;40.82;102708.53;5062153;28;20469;-41
2021/12/14 08:34:11;;;;;;;364.38;262.75;;;;;;;24.31;40.52;102705.28;5063569;28;20028;-41
2021/12/14 08:36:44;;;;;;;374.60;266.42;;;;;;;24.19;41.23;102710.94;5063317;28;20036;-41
2021/12/14 08:39:20;;;;;;;373.75;263.27;;;;;;;24.25;40.61;102709.44;5063769;28;20029;-42
2021/12/14 08:41:55;;;;;;;369.25;261.90;;;;;;;24.19;41.15;102716.19;5063444;28;20020;-42
2021/12/14 08:44:37;;;;;;;375.70;262.52;;;;;;;24.15;41.06;102715.19;5063667;28;20036;-42
2021/12/14 08:47:10;;;;;;;378.58;266.27;;;;;;;24.21;41.16;102725.00;5063587;28;20478;-42
2021/12/14 08:49:39;;;;;;;361.77;261.92;;;;;;;24.17;40.85;102729.25;5063270;28;20123;-43
2021/12/14 08:52:09;;;;;;;370.65;264.13;;;;;;;24.21;40.83;102712.81;5063026;28;20029;-42
2021/12/14 08:54:38;;;;;;;364.48;260.23;;;;;;;24.25;40.52;102717.31;5062804;28;20027;-44
2021/12/14 08:57:13;;;;;;;369.20;264.13;;;;;;;24.14;40.82;102723.00;5063178;28;20036;-44
2021/12/14 08:59:45;;;;;;;364.60;260.30;;;;;;;24.15;40.90;102728.28;5063304;28;20040;-45
2021/12/14 09:02:16;;;;;;;376.50;260.13;;;;;;;24.21;41.03;102725.00;5063423;28;20120;-42
2021/12/14 09:04:49;;;;;;;342.67;249.27;;;;;;;24.11;40.60;102714.16;5055086;28;20131;-42
2021/12/14 09:07:21;;;;;;;348.52;244.90;;;;;;;24.11;40.56;102719.41;5063110;28;20088;-45
2021/12/14 09:09:49;;;;;;;345.42;242.23;;;;;;;24.20;40.31;102721.50;5063152;28;20032;-42
2021/12/14 09:12:31;;;;;;;325.40;233.15;;;;;;;24.19;40.49;102724.06;5062671;28;20086;-45
2021/12/14 09:15:05;;;;;;;340.05;244.35;;;;;;;24.19;40.49;102716.19;5061179;28;20052;-43
2021/12/14 09:17:34;;;;;;;343.13;241.97;;;;;;;24.16;40.85;102727.47;5060637;28;20021;-44
2021/12/14 09:20:10;;;;;;;333.67;237.77;;;;;;;24.25;40.59;102729.56;5061731;28;20114;-45
2021/12/14 09:22:52;;;;;;;348.80;242.32;;;;;;;24.24;40.34;102725.13;5062768;28;20036;-41
2021/12/14 09:25:25;;;;;;;338.17;245.00;;;;;;;24.32;40.53;102723.72;5062806;28;20041;-42
2021/12/14 09:27:53;;;;;;;343.55;246.90;;;;;;;24.19;40.94;102726.66;5062802;28;20039;-43
2021/12/14 09:30:25;;;;;;;343.65;241.20;;;;;;;24.20;40.81;102733.72;5062306;28;20068;-41
2021/12/14 09:32:54;;;;;;;344.08;240.80;;;;;;;24.19;40.88;102731.91;5061543;28;20028;-41
2021/12/14 09:35:27;;;;;;;336.75;244.40;;;;;;;24.30;40.37;102740.22;5062744;28;20797;-43
2021/12/14 09:37:57;;;;;;;347.88;244.63;;;;;;;24.26;40.40;102734.84;5062309;28;20397;-42
2021/12/14 09:40:31;;;;;;;344.90;244.07;;;;;;;24.24;40.38;102735.63;5062663;28;20091;-42
2021/12/14 09:43:00;;;;;;;354.55;254.13;;;;;;;24.28;40.58;102742.78;5062630;28;20035;-42
2021/12/14 09:45:34;;;;;;;348.23;248.52;;;;;;;24.29;40.56;102736.72;5061148;28;20029;-45
2021/12/14 09:48:04;;;;;;;345.87;243.13;;;;;;;24.25;40.43;102737.41;5062599;28;20120;-42
2021/12/14 09:50:35;;;;;;;344.25;245.60;;;;;;;24.18;41.01;102740.63;5062462;28;20067;-42
2021/12/14 09:53:06;;;;;;;342.75;247.80;;;;;;;24.15;40.66;102740.53;5062565;28;20032;-42
2021/12/14 09:55:39;;;;;;;356.75;248.57;;;;;;;24.31;40.42;102742.00;5061986;28;20031;-41
2021/12/14 09:58:16;;;;;;;334.42;243.15;;;;;;;24.26;40.70;102750.59;5062378;28;20071;-42
2021/12/14 10:00:58;;;;;;;352.88;246.80;;;;;;;24.26;40.49;102753.19;5062403;28;20393;-42
2021/12/14 10:03:28;;;;;;;350.17;254.50;;;;;;;24.25;40.94;102747.91;5047427;28;20028;-42
2021/12/14 10:06:00;;;;;;;359.95;254.30;;;;;;;24.27;40.88;102748.88;5066247;28;20068;-42
2021/12/14 10:08:34;;;;;;;356.75;250.90;;;;;;;24.23;40.45;102754.81;5066194;28;20020;-43
2021/12/14 10:11:09;;;;;;;361.03;258.60;;;;;;;24.36;40.61;102750.97;5065775;28;20058;-43
2021/12/14 10:13:45;;;;;;;365.95;261.35;;;;;;;24.28;40.43;102761.16;5065949;28;20032;-42
2021/12/14 10:16:14;;;;;;;360.63;260.70;;;;;;;24.22;40.93;102755.66;5065381;28;20032;-41
2021/12/14 10:18:46;;;;;;;370.67;259.65;;;;;;;24.26;40.52;102760.19;5064262;28;20661;-41
2021/12/14 10:21:20;;;;;;;366.77;257.27;;;;;;;24.26;40.61;102752.31;5066201;28;20036;-41
2021/12/14 10:23:50;;;;;;;360.60;260.85;;;;;;;24.27;40.72;102757.63;5065509;28;20041;-41
2021/12/14 10:26:21;;;;;;;368.98;264.48;;;;;;;24.15;41.18;102761.50;5065717;28;20288;-42
2021/12/14 10:28:53;;;;;;;369.20;261.75;;;;;;;24.15;41.08;102766.75;5065584;28;20032;-41
2021/12/14 10:31:28;;;;;;;362.30;261.00;;;;;;;24.25;41.04;102766.28;5064904;28;20029;-41
2021/12/14 10:33:59;;;;;;;376.73;264.27;;;;;;;24.32;40.92;102763.06;5048871;28;20028;-42
2021/12/14 10:36:36;;;;;;;371.85;266.20;;;;;;;24.31;40.68;102769.16;5063898;28;20052;-42
2021/12/14 10:44:32;;;;;;;379.00;267.33;;;;;;;24.33;40.79;102756.97;5058781;28;19916;-43
2021/12/14 10:47:01;;;;;;;368.10;265.40;;;;;;;24.19;40.92;102753.81;5065447;28;20033;-41
2021/12/14 10:49:30;;;;;;;366.45;262.05;;;;;;;24.22;40.80;102760.91;5063686;28;20060;-41
2021/12/14 10:52:04;;;;;;;368.15;261.00;;;;;;;24.26;40.70;102749.69;5064708;28;20024;-41
2021/12/14 10:54:33;;;;;;;372.90;262.17;;;;;;;24.08;41.04;102727.16;5065492;28;20029;-42
2021/12/14 10:57:08;;;;;;;376.08;265.15;;;;;;;24.16;40.95;102744.94;5065490;28;20082;-41
2021/12/14 10:59:40;;;;;;;369.88;267.42;;;;;;;24.15;40.82;102756.25;5064991;28;20157;-41
2021/12/14 11:02:09;;;;;;;369.92;265.90;;;;;;;24.17;41.11;102751.94;5064983;28;20036;-41
2021/12/14 11:04:42;;;;;;;374.40;267.85;;;;;;;24.23;40.89;102754.81;5065388;28;20469;-41
2021/12/14 11:07:18;;;;;;;369.75;265.38;;;;;;;24.28;40.76;102751.53;5064974;28;20102;-41
2021/12/14 11:09:52;;;;;;;372.40;268.98;;;;;;;24.27;40.46;102757.63;5064735;28;20050;-42
2021/12/14 11:12:28;;;;;;;371.10;266.27;;;;;;;24.16;41.01;102752.78;5064480;28;20112;-42
2021/12/14 11:15:17;;;;;;;372.42;267.15;;;;;;;24.18;40.80;102756.34;5063612;28;20028;-42
2021/12/14 11:18:09;;;;;;;377.13;269.40;;;;;;;24.21;40.52;102748.59;5064520;28;20052;-43
2021/12/14 11:20:39;;;;;;;375.45;269.25;;;;;;;24.21;41.04;102748.59;5064952;28;20482;-42
2021/12/14 11:23:12;;;;;;;371.20;276.83;;;;;;;24.12;41.23;102752.66;5064512;28;20029;-42
2021/12/14 11:26:18;;;;;;;368.75;265.85;;;;;;;24.25;40.67;102751.41;5064747;28;20135;-43
2021/12/14 11:28:56;;;;;;;357.85;259.52;;;;;;;24.16;41.06;102742.31;5063218;28;20036;-41
2021/12/14 11:31:43;;;;;;;364.02;259.25;;;;;;;24.17;40.81;102744.97;5064917;28;20478;-42
2021/12/14 11:34:16;;;;;;;364.70;261.40;;;;;;;24.23;40.47;102744.31;5061080;28;20155;-42
2021/12/14 11:36:52;;;;;;;371.02;260.33;;;;;;;24.20;40.54;102738.94;5063897;28;20035;-41
2021/12/14 11:39:24;;;;;;;348.45;253.73;;;;;;;24.22;40.40;102747.78;5064525;28;20039;-41
2021/12/14 11:41:56;;;;;;;358.17;256.70;;;;;;;24.20;40.57;102739.88;5063975;28;20066;-41
2021/12/14 11:44:30;;;;;;;349.00;249.85;;;;;;;24.18;40.55;102736.28;5064257;28;20032;-42
2021/12/14 11:47:02;;;;;;;350.95;251.20;;;;;;;24.25;40.41;102734.78;5064270;28;20028;-41
2021/12/14 11:49:53;;;;;;;333.05;242.98;;;;;;;24.37;40.35;102737.03;5064468;28;20032;-41
2021/12/14 11:52:49;;;;;;;329.80;241.40;;;;;;;24.39;40.18;102731.00;5064493;28;20021;-41
2021/12/14 11:55:22;;;;;;;327.30;236.05;;;;;;;24.39;39.83;102735.34;5064224;28;20032;-42
2021/12/14 11:58:05;;;;;;;323.10;238.52;;;;;;;24.40;40.07;102730.16;5064332;28;20068;-41
2021/12/14 12:00:34;;;;;;;316.73;226.55;;;;;;;24.22;40.40;102734.66;5062780;28;20029;-42